Time;durP1;ratioP1;P1;durP2;ratioP2;P2;SDS_P1;SDS_P2;PMS_P1;PMS_P2;Temp;Humidity;BMP_temperature;BMP_pressure;BME280_temperature;BME280_humidity;BME280_pressure;Samples;Min_cycle;Max_cycle;Signal;HPM_P1;HPM_P2
2022/03/27 00:00:48;;;;;;;19.02;9.48;;;;;;;;;;5032234;28;20037;-71
2022/03/27 00:03:14;;;;;;;22.17;9.68;;;;;;;;;;5031661;28;20071;-71
2022/03/27 00:05:41;;;;;;;15.80;9.38;;;;;;;;;;5031423;28;20021;-71
2022/03/27 00:08:07;;;;;;;20.45;9.43;;;;;;;;;;5031612;28;20037;-71
2022/03/27 00:11:23;;;;;;;20.70;9.65;;;;;;;;;;5032011;28;20037;-72
2022/03/27 00:13:21;;;;;;;20.75;9.93;;;;;;;;;;5028192;28;20030;-72
2022/03/27 00:15:47;;;;;;;18.17;10.38;;;;;;;;;;5031829;28;20029;-71
2022/03/27 00:18:13;;;;;;;14.10;9.32;;;;;;;;;;5031232;28;20483;-71
2022/03/27 00:20:40;;;;;;;20.67;9.88;;;;;;;;;;5031403;28;20040;-71
2022/03/27 00:23:07;;;;;;;18.73;10.00;;;;;;;;;;5031557;28;20025;-72
2022/03/27 00:25:33;;;;;;;16.52;9.60;;;;;;;;;;5031609;28;20427;-72
2022/03/27 00:27:59;;;;;;;16.58;10.00;;;;;;;;;;5029905;28;20032;-71
2022/03/27 00:30:26;;;;;;;20.85;10.68;;;;;;;;;;5031422;28;20026;-71
2022/03/27 00:32:52;;;;;;;16.80;8.50;;;;;;;;;;5030904;28;20037;-71
2022/03/27 00:35:19;;;;;;;19.30;10.30;;;;;;;;;;5031614;28;20036;-72
2022/03/27 00:37:45;;;;;;;24.48;10.05;;;;;;;;;;5031408;28;20028;-71
2022/03/27 00:40:14;;;;;;;16.10;9.95;;;;;;;;;;5031843;28;20028;-72
2022/03/27 00:42:40;;;;;;;16.15;9.52;;;;;;;;;;5013682;28;20037;-70
2022/03/27 00:45:07;;;;;;;19.38;9.57;;;;;;;;;;5013637;28;20026;-71
2022/03/27 00:47:33;;;;;;;16.40;9.43;;;;;;;;;;5031148;28;20029;-71
2022/03/27 00:50:00;;;;;;;18.83;9.88;;;;;;;;;;5031039;28;20490;-71
2022/03/27 00:52:26;;;;;;;19.83;9.93;;;;;;;;;;5031341;28;20489;-71
2022/03/27 00:54:52;;;;;;;19.50;10.30;;;;;;;;;;5031964;28;20028;-71
2022/03/27 00:57:18;;;;;;;15.43;9.32;;;;;;;;;;5031180;28;20043;-71
2022/03/27 00:59:45;;;;;;;20.05;10.10;;;;;;;;;;5031080;28;20029;-71
2022/03/27 01:02:11;;;;;;;16.27;9.55;;;;;;;;;;5030708;28;20029;-71
2022/03/27 01:04:42;;;;;;;15.00;9.52;;;;;;;;;;5013382;28;20025;-71
2022/03/27 01:07:09;;;;;;;21.10;10.35;;;;;;;;;;5031604;28;20039;-72
2022/03/27 01:09:35;;;;;;;17.67;9.63;;;;;;;;;;5030997;28;20025;-71
2022/03/27 01:12:22;;;;;;;15.88;9.10;;;;;;;;;;5030990;28;20029;-71
2022/03/27 01:14:52;;;;;;;21.05;9.73;;;;;;;;;;4997107;28;20033;-71
2022/03/27 01:17:20;;;;;;;21.60;9.38;;;;;;;;;;5030750;28;20032;-71
2022/03/27 01:19:47;;;;;;;17.95;9.93;;;;;;;;;;5030863;28;20022;-72
2022/03/27 01:22:15;;;;;;;20.58;10.25;;;;;;;;;;5031710;28;20037;-71
2022/03/27 01:24:41;;;;;;;18.30;9.48;;;;;;;;;;5031076;28;20026;-71
2022/03/27 01:27:08;;;;;;;16.85;9.25;;;;;;;;;;5031168;28;20025;-71
2022/03/27 01:29:34;;;;;;;21.85;10.25;;;;;;;;;;5030939;28;20022;-72
2022/03/27 01:32:01;;;;;;;19.40;9.60;;;;;;;;;;5030511;28;20374;-71
2022/03/27 01:34:28;;;;;;;20.42;10.45;;;;;;;;;;5030788;28;20020;-71
2022/03/27 01:36:54;;;;;;;18.88;10.10;;;;;;;;;;5031179;28;20401;-71
2022/03/27 01:39:20;;;;;;;16.63;9.40;;;;;;;;;;5030687;28;20033;-71
2022/03/27 01:41:47;;;;;;;16.45;9.88;;;;;;;;;;5030657;28;20030;-71
2022/03/27 01:44:18;;;;;;;15.40;9.55;;;;;;;;;;5030864;28;20022;-71
2022/03/27 01:46:44;;;;;;;;;;;;;;;;;;5031149;28;20021;-71
2022/03/27 01:49:12;;;;;;;18.13;9.75;;;;;;;;;;5030934;28;20284;-71
2022/03/27 01:51:39;;;;;;;17.08;9.07;;;;;;;;;;5030553;28;20494;-72
2022/03/27 01:54:05;;;;;;;17.17;9.88;;;;;;;;;;5031568;28;20389;-71
2022/03/27 01:56:32;;;;;;;17.80;9.43;;;;;;;;;;5034155;28;20029;-71
2022/03/27 01:58:59;;;;;;;16.88;9.45;;;;;;;;;;5034206;28;20029;-71
2022/03/27 02:01:26;;;;;;;15.35;9.10;;;;;;;;;;5033916;28;20030;-71
2022/03/27 02:03:54;;;;;;;16.90;9.40;;;;;;;;;;5033578;28;20429;-72
2022/03/27 02:06:21;;;;;;;15.73;9.70;;;;;;;;;;5012182;28;20028;-71
2022/03/27 02:08:47;;;;;;;15.48;9.85;;;;;;;;;;5033945;28;20029;-71
2022/03/27 02:11:15;;;;;;;16.45;9.60;;;;;;;;;;5034211;28;20033;-71
2022/03/27 02:13:41;;;;;;;14.90;10.10;;;;;;;;;;5033975;28;20028;-71
2022/03/27 02:16:08;;;;;;;15.57;9.30;;;;;;;;;;5034053;28;20050;-71
2022/03/27 02:18:35;;;;;;;16.80;8.90;;;;;;;;;;5033672;28;20478;-71
2022/03/27 02:21:01;;;;;;;15.93;9.23;;;;;;;;;;5033672;28;20051;-71
2022/03/27 02:23:28;;;;;;;15.80;9.65;;;;;;;;;;5034091;28;20013;-71
2022/03/27 02:25:55;;;;;;;13.98;9.00;;;;;;;;;;5033937;28;20029;-71
2022/03/27 02:28:22;;;;;;;15.18;9.10;;;;;;;;;;5033442;28;20501;-71
2022/03/27 02:30:48;;;;;;;18.48;9.50;;;;;;;;;;5034020;28;20441;-71
2022/03/27 02:33:16;;;;;;;18.10;10.00;;;;;;;;;;5033613;28;20026;-72
2022/03/27 02:35:42;;;;;;;13.93;9.25;;;;;;;;;;5033582;28;20027;-71
2022/03/27 02:38:09;;;;;;;19.30;10.07;;;;;;;;;;5033469;28;20024;-72
2022/03/27 02:40:36;;;;;;;15.75;9.15;;;;;;;;;;5033513;28;20055;-71
2022/03/27 02:43:02;;;;;;;16.65;9.63;;;;;;;;;;5033615;28;20031;-71
2022/03/27 02:45:29;;;;;;;16.77;9.73;;;;;;;;;;5033316;28;20032;-71
2022/03/27 02:47:56;;;;;;;16.88;10.13;;;;;;;;;;5033214;28;20093;-71
2022/03/27 02:50:23;;;;;;;17.90;9.68;;;;;;;;;;5033308;28;20359;-71
2022/03/27 02:52:49;;;;;;;15.70;8.90;;;;;;;;;;5033374;28;20029;-71
2022/03/27 02:55:15;;;;;;;13.98;9.30;;;;;;;;;;5033941;28;20025;-71
2022/03/27 02:57:42;;;;;;;15.50;10.07;;;;;;;;;;5032601;28;20118;-72
2022/03/27 03:00:09;;;;;;;16.40;10.05;;;;;;;;;;5033063;28;20021;-71
2022/03/27 03:02:35;;;;;;;19.70;9.13;;;;;;;;;;5032751;28;20034;-71
2022/03/27 03:05:02;;;;;;;18.33;9.77;;;;;;;;;;5032271;28;20063;-71
2022/03/27 03:07:29;;;;;;;17.83;9.80;;;;;;;;;;5032439;28;20071;-71
2022/03/27 03:09:56;;;;;;;15.82;9.55;;;;;;;;;;5033184;28;20030;-72
2022/03/27 03:12:22;;;;;;;14.75;9.65;;;;;;;;;;5032341;28;20030;-71
2022/03/27 03:14:48;;;;;;;18.90;9.32;;;;;;;;;;5032672;28;20083;-71
2022/03/27 03:17:15;;;;;;;13.77;8.68;;;;;;;;;;5032750;28;20021;-71
2022/03/27 03:19:41;;;;;;;13.77;9.32;;;;;;;;;;5033033;28;20033;-71
2022/03/27 03:22:07;;;;;;;21.45;8.85;;;;;;;;;;5033151;28;20044;-71
2022/03/27 03:24:35;;;;;;;13.43;8.48;;;;;;;;;;5032535;28;20026;-72
2022/03/27 03:27:01;;;;;;;15.80;9.10;;;;;;;;;;5032289;28;20033;-71
2022/03/27 03:29:27;;;;;;;15.20;8.75;;;;;;;;;;5032484;28;20485;-71
2022/03/27 03:31:54;;;;;;;15.13;8.98;;;;;;;;;;5032622;28;20028;-71
2022/03/27 03:34:20;;;;;;;17.63;9.82;;;;;;;;;;5032581;28;20033;-71
2022/03/27 03:36:46;;;;;;;17.48;10.25;;;;;;;;;;5032368;28;20036;-71
2022/03/27 03:39:13;;;;;;;16.48;9.60;;;;;;;;;;5032177;28;20482;-71
2022/03/27 03:41:39;;;;;;;17.98;9.32;;;;;;;;;;5031849;28;20043;-72
2022/03/27 03:44:05;;;;;;;15.32;9.25;;;;;;;;;;5032243;28;20017;-71
2022/03/27 03:46:32;;;;;;;17.77;9.82;;;;;;;;;;5032401;28;20075;-71
2022/03/27 03:48:58;;;;;;;14.77;8.88;;;;;;;;;;5030603;28;20014;-71
2022/03/27 03:51:25;;;;;;;15.18;9.73;;;;;;;;;;5031981;28;20025;-71
2022/03/27 03:53:51;;;;;;;14.45;9.32;;;;;;;;;;5032142;28;20017;-71
2022/03/27 03:56:17;;;;;;;19.75;9.80;;;;;;;;;;5014043;28;20490;-72
2022/03/27 03:58:43;;;;;;;14.82;9.48;;;;;;;;;;5032105;28;20036;-71
2022/03/27 04:01:10;;;;;;;15.45;9.45;;;;;;;;;;5032342;28;20041;-71
2022/03/27 04:03:36;;;;;;;14.55;9.20;;;;;;;;;;5031575;28;20520;-71
2022/03/27 04:06:02;;;;;;;19.67;8.95;;;;;;;;;;5031800;28;20029;-71
2022/03/27 04:08:29;;;;;;;17.42;9.00;;;;;;;;;;5031565;28;20541;-71
2022/03/27 04:10:55;;;;;;;21.80;9.52;;;;;;;;;;5031778;28;20025;-71
2022/03/27 04:13:21;;;;;;;14.65;9.80;;;;;;;;;;5031818;28;20043;-71
2022/03/27 04:15:48;;;;;;;17.15;10.07;;;;;;;;;;5031959;28;20017;-71
2022/03/27 04:18:14;;;;;;;15.93;8.93;;;;;;;;;;5031277;28;20031;-71
2022/03/27 04:20:44;;;;;;;18.73;9.50;;;;;;;;;;5031827;28;20025;-71
2022/03/27 04:23:10;;;;;;;14.85;8.93;;;;;;;;;;5031498;28;20512;-71
2022/03/27 04:25:38;;;;;;;14.38;8.85;;;;;;;;;;5031271;28;20449;-71
2022/03/27 04:28:05;;;;;;;16.92;9.57;;;;;;;;;;5032335;28;20029;-71
2022/03/27 04:30:31;;;;;;;15.98;9.52;;;;;;;;;;5031323;28;20022;-71
2022/03/27 04:32:58;;;;;;;14.77;9.38;;;;;;;;;;5031383;28;20044;-71
2022/03/27 04:35:24;;;;;;;17.55;9.05;;;;;;;;;;5031373;28;20039;-71
2022/03/27 04:37:50;;;;;;;23.25;9.85;;;;;;;;;;5031641;28;20036;-71
2022/03/27 04:40:17;;;;;;;17.42;9.18;;;;;;;;;;5031673;28;20026;-71
2022/03/27 04:42:43;;;;;;;16.67;9.18;;;;;;;;;;5031540;28;20034;-71
2022/03/27 04:45:11;;;;;;;20.02;9.98;;;;;;;;;;5031482;28;20034;-71
2022/03/27 04:47:38;;;;;;;16.60;9.52;;;;;;;;;;5031152;28;20032;-71
2022/03/27 04:50:05;;;;;;;14.63;8.75;;;;;;;;;;5031285;28;20543;-71
2022/03/27 04:52:31;;;;;;;14.10;8.75;;;;;;;;;;5031479;28;20029;-71
2022/03/27 04:54:58;;;;;;;13.63;8.68;;;;;;;;;;5031410;28;20408;-71
2022/03/27 04:57:25;;;;;;;17.50;9.73;;;;;;;;;;5031440;28;20020;-71
2022/03/27 04:59:51;;;;;;;17.52;10.15;;;;;;;;;;5031145;28;20026;-71
2022/03/27 05:02:18;;;;;;;13.32;8.45;;;;;;;;;;5013389;28;20040;-71
2022/03/27 05:04:44;;;;;;;15.82;8.65;;;;;;;;;;5031214;28;20022;-71
2022/03/27 05:07:10;;;;;;;15.77;9.50;;;;;;;;;;5031443;28;20028;-72
2022/03/27 05:09:37;;;;;;;17.48;9.27;;;;;;;;;;5030663;28;20047;-71
2022/03/27 05:12:03;;;;;;;17.15;9.15;;;;;;;;;;5008953;28;20042;-71
2022/03/27 05:14:29;;;;;;;16.70;9.75;;;;;;;;;;5030863;28;20314;-71
2022/03/27 05:16:56;;;;;;;18.88;9.85;;;;;;;;;;5031265;28;20021;-71
2022/03/27 05:19:22;;;;;;;17.38;10.63;;;;;;;;;;5031109;28;20029;-71
2022/03/27 05:21:49;;;;;;;21.88;11.68;;;;;;;;;;5031258;28;20025;-71
2022/03/27 05:24:16;;;;;;;18.67;11.32;;;;;;;;;;5030808;28;20017;-71
2022/03/27 05:26:42;;;;;;;18.25;11.52;;;;;;;;;;5030917;28;20029;-71
2022/03/27 05:29:10;;;;;;;19.80;12.02;;;;;;;;;;5032317;28;20020;-71
2022/03/27 05:31:36;;;;;;;17.80;10.98;;;;;;;;;;5034640;28;20049;-71
2022/03/27 05:34:04;;;;;;;26.70;11.32;;;;;;;;;;5017540;28;20031;-71
2022/03/27 05:36:30;;;;;;;24.95;11.05;;;;;;;;;;5034488;28;20036;-71
2022/03/27 05:38:56;;;;;;;19.35;10.95;;;;;;;;;;5034125;28;20037;-72
2022/03/27 05:41:23;;;;;;;16.35;9.93;;;;;;;;;;5034467;28;20512;-71
2022/03/27 05:43:50;;;;;;;20.17;10.50;;;;;;;;;;5034623;28;20027;-71
2022/03/27 05:46:16;;;;;;;15.85;9.40;;;;;;;;;;5035070;28;20018;-71
2022/03/27 05:48:42;;;;;;;17.92;10.48;;;;;;;;;;5034424;28;20024;-71
2022/03/27 05:51:09;;;;;;;16.30;10.18;;;;;;;;;;5034201;28;20037;-71
2022/03/27 05:53:35;;;;;;;17.15;10.88;;;;;;;;;;5033845;28;20147;-71
2022/03/27 05:56:02;;;;;;;19.15;9.75;;;;;;;;;;5034395;28;20496;-71
2022/03/27 05:58:28;;;;;;;16.35;9.48;;;;;;;;;;5034404;28;20055;-71
2022/03/27 06:00:54;;;;;;;16.25;9.05;;;;;;;;;;5034853;28;20029;-71
2022/03/27 06:03:21;;;;;;;17.67;9.02;;;;;;;;;;5033883;28;20030;-72
2022/03/27 06:05:47;;;;;;;14.15;8.68;;;;;;;;;;5016284;28;20022;-72
2022/03/27 06:08:13;;;;;;;13.18;9.10;;;;;;;;;;5033956;28;20044;-71
2022/03/27 06:10:41;;;;;;;15.20;9.48;;;;;;;;;;5033981;28;20048;-71
2022/03/27 06:13:10;;;;;;;17.92;9.57;;;;;;;;;;5034503;28;20470;-71
2022/03/27 06:15:36;;;;;;;14.45;8.98;;;;;;;;;;5033789;28;20034;-71
2022/03/27 06:18:03;;;;;;;12.80;8.80;;;;;;;;;;5033836;28;20025;-71
2022/03/27 06:20:31;;;;;;;17.08;9.40;;;;;;;;;;5033489;28;20021;-72
2022/03/27 06:22:58;;;;;;;17.40;8.90;;;;;;;;;;5033882;28;20036;-71
2022/03/27 06:25:26;;;;;;;17.70;10.07;;;;;;;;;;5016300;28;20397;-71
2022/03/27 06:27:52;;;;;;;18.83;11.20;;;;;;;;;;5033107;28;20028;-71
2022/03/27 06:30:20;;;;;;;24.02;11.48;;;;;;;;;;5033630;28;20033;-71
2022/03/27 06:32:47;;;;;;;15.18;9.60;;;;;;;;;;5033847;28;20033;-71
2022/03/27 06:35:15;;;;;;;17.58;11.43;;;;;;;;;;5033555;28;20027;-72
2022/03/27 06:37:41;;;;;;;16.67;9.50;;;;;;;;;;5033528;28;20024;-71
2022/03/27 06:40:09;;;;;;;17.77;9.45;;;;;;;;;;5033876;28;20020;-71
2022/03/27 06:42:35;;;;;;;16.88;9.18;;;;;;;;;;5033242;28;20022;-71
2022/03/27 06:45:02;;;;;;;15.50;9.80;;;;;;;;;;5033334;28;20021;-72
2022/03/27 06:47:29;;;;;;;19.42;9.90;;;;;;;;;;5033398;28;20028;-71
2022/03/27 06:49:56;;;;;;;18.88;10.45;;;;;;;;;;5033088;28;20494;-71
2022/03/27 06:52:23;;;;;;;14.15;9.68;;;;;;;;;;5033321;28;20037;-72
2022/03/27 06:54:50;;;;;;;14.57;9.10;;;;;;;;;;5033640;28;20052;-71
2022/03/27 06:57:16;;;;;;;16.95;9.05;;;;;;;;;;5033107;28;20059;-71
2022/03/27 07:05:13;;;;;;;17.80;9.80;;;;;;;;;;5032704;28;20029;-71
2022/03/27 07:07:39;;;;;;;16.63;10.45;;;;;;;;;;5032980;28;20121;-71
2022/03/27 07:10:06;;;;;;;15.95;9.13;;;;;;;;;;5033461;28;20393;-71
2022/03/27 07:12:32;;;;;;;17.13;9.70;;;;;;;;;;5032729;28;20033;-71
2022/03/27 07:14:58;;;;;;;21.67;9.55;;;;;;;;;;5032736;28;20021;-72
2022/03/27 07:17:25;;;;;;;15.23;9.10;;;;;;;;;;5032770;28;20389;-71
2022/03/27 07:19:52;;;;;;;12.77;9.43;;;;;;;;;;5032677;28;20017;-71
2022/03/27 07:22:19;;;;;;;15.10;10.32;;;;;;;;;;5033323;28;20478;-72
2022/03/27 07:24:46;;;;;;;16.55;11.48;;;;;;;;;;5032856;28;20033;-71
2022/03/27 07:27:13;;;;;;;16.08;8.73;;;;;;;;;;5032418;28;20043;-72
2022/03/27 07:29:39;;;;;;;10.85;7.82;;;;;;;;;;5032599;28;20071;-72
2022/03/27 07:32:06;;;;;;;13.85;7.70;;;;;;;;;;5032460;28;20040;-72
2022/03/27 07:34:33;;;;;;;14.15;8.20;;;;;;;;;;5032260;28;20029;-72
2022/03/27 07:36:59;;;;;;;14.63;8.45;;;;;;;;;;5030922;28;20036;-72
2022/03/27 07:39:26;;;;;;;16.13;8.18;;;;;;;;;;5032181;28;20017;-72
2022/03/27 07:41:52;;;;;;;12.50;7.82;;;;;;;;;;5014511;28;20114;-72
2022/03/27 07:44:19;;;;;;;14.02;8.60;;;;;;;;;;5032606;28;20014;-72
2022/03/27 07:46:46;;;;;;;10.65;7.47;;;;;;;;;;5032228;28;20078;-72
2022/03/27 07:49:13;;;;;;;13.15;8.68;;;;;;;;;;5032348;28;20070;-72
2022/03/27 07:51:39;;;;;;;11.13;7.32;;;;;;;;;;5031214;28;20041;-72
2022/03/27 07:54:06;;;;;;;14.48;7.85;;;;;;;;;;5032131;28;20044;-72
2022/03/27 07:56:32;;;;;;;13.38;7.78;;;;;;;;;;5031957;28;20021;-72
2022/03/27 07:58:59;;;;;;;12.07;8.20;;;;;;;;;;5032070;28;20013;-72
2022/03/27 08:01:27;;;;;;;12.40;7.82;;;;;;;;;;5032518;28;20030;-72
2022/03/27 08:03:56;;;;;;;10.93;7.50;;;;;;;;;;5031894;28;20026;-72
2022/03/27 08:06:23;;;;;;;12.80;8.23;;;;;;;;;;5032121;28;20026;-72
2022/03/27 08:08:49;;;;;;;14.10;7.80;;;;;;;;;;5031754;28;20045;-72
2022/03/27 08:11:16;;;;;;;12.23;8.30;;;;;;;;;;5031852;28;20037;-72
2022/03/27 08:13:43;;;;;;;14.27;7.68;;;;;;;;;;5031797;28;20039;-72
2022/03/27 08:16:09;;;;;;;12.57;7.82;;;;;;;;;;5032339;28;20035;-71
2022/03/27 08:18:36;;;;;;;14.65;7.68;;;;;;;;;;5031377;28;20021;-72
2022/03/27 08:21:02;;;;;;;10.38;6.97;;;;;;;;;;5031538;28;20040;-72
2022/03/27 08:23:28;;;;;;;11.93;7.82;;;;;;;;;;5031665;28;20485;-71
2022/03/27 08:28:40;;;;;;;10.43;7.18;;;;;;;;;;5031561;28;20490;-72
2022/03/27 08:31:06;;;;;;;10.40;7.88;;;;;;;;;;5031637;28;20041;-72
2022/03/27 08:33:33;;;;;;;10.95;7.15;;;;;;;;;;5031690;28;20029;-72
2022/03/27 08:35:59;;;;;;;11.32;7.80;;;;;;;;;;5031277;28;20021;-72
2022/03/27 08:38:26;;;;;;;11.02;7.72;;;;;;;;;;5031375;28;20478;-71
2022/03/27 08:40:55;;;;;;;12.15;7.53;;;;;;;;;;5031453;28;20452;-72
2022/03/27 08:43:22;;;;;;;8.85;6.97;;;;;;;;;;5031709;28;20025;-70
2022/03/27 08:45:48;;;;;;;12.85;7.68;;;;;;;;;;5030828;28;20501;-70
2022/03/27 08:48:16;;;;;;;13.05;7.57;;;;;;;;;;5031556;28;20032;-70
2022/03/27 08:50:51;;;;;;;10.18;7.47;;;;;;;;;;5031426;28;20025;-72
2022/03/27 08:53:22;;;;;;;12.52;6.80;;;;;;;;;;5031496;28;20036;-72
2022/03/27 08:55:48;;;;;;;;;;;;;;;;;;5016110;28;20029;-72
2022/03/27 08:58:15;;;;;;;10.85;7.25;;;;;;;;;;5031813;28;20328;-72
2022/03/27 09:00:41;;;;;;;11.75;6.80;;;;;;;;;;5030981;28;20026;-71
2022/03/27 09:03:08;;;;;;;9.35;7.20;;;;;;;;;;5031066;28;20409;-72
2022/03/27 09:05:36;;;;;;;9.00;6.65;;;;;;;;;;5034983;28;20029;-72
2022/03/27 09:08:04;;;;;;;10.73;7.35;;;;;;;;;;5035175;28;20053;-72
2022/03/27 09:10:30;;;;;;;10.40;7.00;;;;;;;;;;5035191;28;20037;-72
2022/03/27 09:12:57;;;;;;;16.38;7.57;;;;;;;;;;5035749;28;20037;-72
2022/03/27 09:15:23;;;;;;;17.88;11.60;;;;;;;;;;5034816;28;20029;-72
2022/03/27 09:17:56;;;;;;;10.13;7.65;;;;;;;;;;5034969;28;20030;-72
2022/03/27 09:20:36;;;;;;;16.70;7.05;;;;;;;;;;5035115;28;20021;-72
2022/03/27 09:23:13;;;;;;;21.90;14.32;;;;;;;;;;5021146;28;20044;-72
2022/03/27 09:25:44;;;;;;;18.55;11.20;;;;;;;;;;5017293;28;20034;-72
2022/03/27 09:28:10;;;;;;;12.00;7.80;;;;;;;;;;5035518;28;20029;-72
2022/03/27 09:30:37;;;;;;;12.80;6.82;;;;;;;;;;5034303;28;20512;-69
2022/03/27 09:33:03;;;;;;;9.27;5.88;;;;;;;;;;5034636;28;20033;-70
2022/03/27 09:35:29;;;;;;;10.45;6.03;;;;;;;;;;5034662;28;20017;-73
2022/03/27 09:37:56;;;;;;;13.75;6.32;;;;;;;;;;5034682;28;20029;-69
2022/03/27 09:40:22;;;;;;;15.77;5.93;;;;;;;;;;5035050;28;20025;-69
2022/03/27 09:43:08;;;;;;;10.50;5.40;;;;;;;;;;5034497;28;20375;-69
2022/03/27 09:45:35;;;;;;;18.88;8.70;;;;;;;;;;5034140;28;20024;-69
2022/03/27 09:48:07;;;;;;;13.77;5.13;;;;;;;;;;5034587;28;20035;-70
2022/03/27 09:50:35;;;;;;;14.30;4.80;;;;;;;;;;5034298;28;20024;-69
2022/03/27 09:53:22;;;;;;;13.52;4.97;;;;;;;;;;5034337;28;20405;-69
2022/03/27 09:55:55;;;;;;;25.38;4.32;;;;;;;;;;5018873;28;20029;-69
2022/03/27 09:58:38;;;;;;;19.80;4.78;;;;;;;;;;5031011;28;20029;-71
2022/03/27 10:01:22;;;;;;;15.35;4.40;;;;;;;;;;5034315;28;20517;-71
2022/03/27 10:04:10;;;;;;;15.02;4.70;;;;;;;;;;5034195;28;20021;-71
2022/03/27 10:06:38;;;;;;;14.60;4.28;;;;;;;;;;5034219;28;20037;-71
2022/03/27 10:09:06;;;;;;;11.43;4.38;;;;;;;;;;5033931;28;20042;-71
2022/03/27 10:11:34;;;;;;;13.25;4.35;;;;;;;;;;5034087;28;20040;-71
2022/03/27 10:14:00;;;;;;;13.88;4.57;;;;;;;;;;5034058;28;20018;-70
2022/03/27 10:16:30;;;;;;;10.30;4.70;;;;;;;;;;5033568;28;20044;-72
2022/03/27 10:18:59;;;;;;;12.82;4.38;;;;;;;;;;5016856;28;20024;-72
2022/03/27 10:21:27;;;;;;;16.17;4.38;;;;;;;;;;5033832;28;20036;-71
2022/03/27 10:24:01;;;;;;;13.57;4.20;;;;;;;;;;5033957;28;20470;-72
2022/03/27 10:26:28;;;;;;;13.80;4.30;;;;;;;;;;5033791;28;20025;-71
2022/03/27 10:28:55;;;;;;;12.75;4.03;;;;;;;;;;5033810;28;20047;-71
2022/03/27 10:31:23;;;;;;;7.85;3.60;;;;;;;;;;5034071;28;20095;-72
2022/03/27 10:33:50;;;;;;;15.98;4.07;;;;;;;;;;5034000;28;20029;-72
2022/03/27 10:36:23;;;;;;;13.05;3.97;;;;;;;;;;5033617;28;20032;-71
2022/03/27 10:39:08;;;;;;;15.40;3.92;;;;;;;;;;5033561;28;20071;-71
2022/03/27 10:42:13;;;;;;;14.98;4.15;;;;;;;;;;5033147;28;20389;-71
2022/03/27 10:44:45;;;;;;;11.25;3.97;;;;;;;;;;4948837;28;20416;-71
2022/03/27 10:47:19;;;;;;;14.52;4.07;;;;;;;;;;4950412;29;20034;-71
2022/03/27 10:50:06;;;;;;;13.23;3.90;;;;;;;;;;4952797;29;20078;-71
2022/03/27 10:52:36;;;;;;;17.48;4.90;;;;;;;;;;4951179;29;20027;-71
2022/03/27 10:55:10;;;;;;;23.00;4.40;;;;;;;;;;4951908;29;20467;-71
2022/03/27 10:57:37;;;;;;;12.82;4.57;;;;;;;;;;4948516;29;20527;-71
2022/03/27 11:00:06;;;;;;;14.30;4.05;;;;;;;;;;4948717;29;20063;-70
2022/03/27 11:02:49;;;;;;;9.35;3.67;;;;;;;;;;4948468;29;20043;-71
2022/03/27 11:05:36;;;;;;;26.33;4.65;;;;;;;;;;4949733;29;20030;-72
2022/03/27 11:08:17;;;;;;;12.15;4.32;;;;;;;;;;4930961;29;20121;-71
2022/03/27 11:10:45;;;;;;;13.75;3.60;;;;;;;;;;4952014;29;20043;-71
2022/03/27 11:13:27;;;;;;;11.57;3.90;;;;;;;;;;4949036;29;20485;-72
2022/03/27 11:16:09;;;;;;;11.45;3.97;;;;;;;;;;5007952;28;20048;-72
2022/03/27 11:18:36;;;;;;;15.63;4.00;;;;;;;;;;5032787;28;20044;-71
2022/03/27 11:21:03;;;;;;;19.85;4.13;;;;;;;;;;5032807;28;20486;-72
2022/03/27 11:23:30;;;;;;;16.00;4.40;;;;;;;;;;5032716;28;20055;-71
2022/03/27 11:25:58;;;;;;;14.25;4.40;;;;;;;;;;5031991;28;20489;-71
2022/03/27 11:28:26;;;;;;;13.38;5.15;;;;;;;;;;5032372;28;20547;-71
2022/03/27 11:30:56;;;;;;;18.42;4.82;;;;;;;;;;5032066;28;20030;-71
2022/03/27 11:33:32;;;;;;;19.55;5.38;;;;;;;;;;5032524;28;20033;-71
2022/03/27 11:36:04;;;;;;;12.02;5.75;;;;;;;;;;5032594;28;20020;-71
2022/03/27 11:38:32;;;;;;;13.30;5.05;;;;;;;;;;5032378;28;20031;-71
2022/03/27 11:41:18;;;;;;;14.77;5.38;;;;;;;;;;5032061;28;20535;-72
2022/03/27 11:43:45;;;;;;;12.55;5.85;;;;;;;;;;5032273;28;20018;-71
2022/03/27 11:46:20;;;;;;;13.40;5.88;;;;;;;;;;5032956;28;20025;-72
2022/03/27 11:48:56;;;;;;;17.95;5.68;;;;;;;;;;5032475;28;20029;-72
2022/03/27 11:51:26;;;;;;;17.13;5.95;;;;;;;;;;5032282;28;20485;-71
2022/03/27 11:53:53;;;;;;;21.70;6.30;;;;;;;;;;5014096;28;20037;-72
2022/03/27 11:56:20;;;;;;;16.77;6.32;;;;;;;;;;5032514;28;20026;-72
2022/03/27 11:59:03;;;;;;;18.80;6.82;;;;;;;;;;5032204;28;20034;-71
2022/03/27 12:01:31;;;;;;;16.08;6.93;;;;;;;;;;5029665;28;20037;-72
2022/03/27 12:03:58;;;;;;;14.07;6.22;;;;;;;;;;5032336;28;20485;-72
2022/03/27 12:06:28;;;;;;;13.05;7.95;;;;;;;;;;5031909;28;20026;-71
2022/03/27 12:08:56;;;;;;;18.63;8.23;;;;;;;;;;5031562;28;20049;-71
2022/03/27 12:11:23;;;;;;;19.38;8.00;;;;;;;;;;5031945;28;20367;-71
2022/03/27 12:13:50;;;;;;;16.17;7.90;;;;;;;;;;5016204;28;20033;-70
2022/03/27 12:16:17;;;;;;;37.47;8.68;;;;;;;;;;5028454;28;20017;-72
2022/03/27 12:18:45;;;;;;;20.58;11.15;;;;;;;;;;5032052;28;20400;-72
2022/03/27 12:21:13;;;;;;;17.08;9.55;;;;;;;;;;5031690;28;20486;-72
2022/03/27 12:23:43;;;;;;;16.20;9.77;;;;;;;;;;5031444;28;20021;-71
2022/03/27 12:31:53;;;;;;;16.75;8.98;;;;;;;;;;5016247;28;20017;-71
2022/03/27 12:34:20;;;;;;;16.42;11.52;;;;;;;;;;5014422;28;20048;-71
2022/03/27 12:37:09;;;;;;;21.73;9.65;;;;;;;;;;5031978;28;20033;-71
2022/03/27 12:39:36;;;;;;;19.20;8.77;;;;;;;;;;5030878;28;20024;-71
2022/03/27 12:42:02;;;;;;;14.60;8.65;;;;;;;;;;5031262;28;20570;-71
2022/03/27 12:44:47;;;;;;;19.73;9.30;;;;;;;;;;5013649;28;20044;-72
2022/03/27 12:47:14;;;;;;;22.70;10.50;;;;;;;;;;5031378;28;20018;-71
2022/03/27 12:49:50;;;;;;;15.50;8.95;;;;;;;;;;5013696;28;20044;-72
2022/03/27 12:52:17;;;;;;;16.70;10.02;;;;;;;;;;5027337;28;20028;-71
2022/03/27 12:55:10;;;;;;;20.85;9.48;;;;;;;;;;5031297;28;20508;-71
2022/03/27 12:58:12;;;;;;;15.43;9.35;;;;;;;;;;5028170;28;20042;-71
2022/03/27 13:00:40;;;;;;;19.80;10.05;;;;;;;;;;4946903;29;20027;-71
2022/03/27 13:03:13;;;;;;;16.73;8.65;;;;;;;;;;4946603;29;20047;-71
2022/03/27 13:05:40;;;;;;;13.10;7.80;;;;;;;;;;4952275;28;20027;-71
2022/03/27 13:08:08;;;;;;;18.02;8.50;;;;;;;;;;4948589;29;20096;-71
2022/03/27 13:10:37;;;;;;;21.42;8.43;;;;;;;;;;4949222;29;20031;-71
2022/03/27 13:13:08;;;;;;;20.92;7.72;;;;;;;;;;4950009;29;20041;-71
2022/03/27 13:15:43;;;;;;;18.42;7.70;;;;;;;;;;4946674;29;20459;-72
2022/03/27 13:18:13;;;;;;;20.60;8.30;;;;;;;;;;4946681;29;20031;-71
2022/03/27 13:20:39;;;;;;;15.82;8.52;;;;;;;;;;4946483;29;20027;-71
2022/03/27 13:23:06;;;;;;;21.02;9.27;;;;;;;;;;4948766;29;20520;-71
2022/03/27 13:25:32;;;;;;;15.57;8.05;;;;;;;;;;4948939;29;20027;-71
2022/03/27 13:27:59;;;;;;;16.58;8.07;;;;;;;;;;4946988;29;20519;-71
2022/03/27 13:30:25;;;;;;;18.58;7.70;;;;;;;;;;4946537;29;20039;-71
2022/03/27 13:32:52;;;;;;;26.40;7.65;;;;;;;;;;4930629;29;20034;-71
2022/03/27 13:35:18;;;;;;;18.20;8.07;;;;;;;;;;5013935;28;20045;-71
2022/03/27 13:37:45;;;;;;;22.20;8.68;;;;;;;;;;5030997;28;20409;-71
2022/03/27 13:40:12;;;;;;;16.58;7.93;;;;;;;;;;5031448;28;20379;-71
2022/03/27 13:45:27;;;;;;;17.05;8.68;;;;;;;;;;5030800;28;20045;-71
2022/03/27 13:47:55;;;;;;;13.63;9.55;;;;;;;;;;5031006;28;20025;-71
2022/03/27 13:50:22;;;;;;;18.50;9.10;;;;;;;;;;5032070;28;20026;-71
2022/03/27 13:52:48;;;;;;;16.55;8.82;;;;;;;;;;5034524;28;20018;-71
2022/03/27 13:55:15;;;;;;;14.68;10.05;;;;;;;;;;5035001;28;20403;-71
2022/03/27 13:57:42;;;;;;;24.58;12.13;;;;;;;;;;5034553;28;20021;-71
2022/03/27 14:00:09;;;;;;;15.20;10.15;;;;;;;;;;5034374;28;20401;-71
2022/03/27 14:02:38;;;;;;;16.92;9.60;;;;;;;;;;5034150;28;20512;-71
2022/03/27 14:05:04;;;;;;;24.65;13.88;;;;;;;;;;5034016;28;20024;-71
2022/03/27 14:07:32;;;;;;;21.63;11.57;;;;;;;;;;5034162;28;20038;-71
2022/03/27 14:09:58;;;;;;;16.67;9.65;;;;;;;;;;5034661;28;20398;-71
2022/03/27 14:12:24;;;;;;;18.08;9.55;;;;;;;;;;5034464;28;20028;-72
2022/03/27 14:14:51;;;;;;;18.02;9.95;;;;;;;;;;5034160;28;20024;-71
2022/03/27 14:17:17;;;;;;;22.77;12.75;;;;;;;;;;5033983;28;20027;-70
2022/03/27 14:19:44;;;;;;;21.83;11.63;;;;;;;;;;5033683;28;20028;-72
2022/03/27 14:22:10;;;;;;;21.23;9.68;;;;;;;;;;5034469;28;20045;-71
2022/03/27 14:24:37;;;;;;;15.70;8.20;;;;;;;;;;5033622;28;20029;-71
2022/03/27 14:27:04;;;;;;;20.50;8.40;;;;;;;;;;5033856;28;20039;-71
2022/03/27 14:29:32;;;;;;;16.13;8.15;;;;;;;;;;5033821;28;20028;-71
2022/03/27 14:31:59;;;;;;;14.80;7.68;;;;;;;;;;5034038;28;20044;-71
2022/03/27 14:34:25;;;;;;;16.23;9.43;;;;;;;;;;5033631;28;20017;-71
2022/03/27 14:36:52;;;;;;;21.17;8.93;;;;;;;;;;5034094;28;20036;-71
2022/03/27 14:39:18;;;;;;;19.20;7.20;;;;;;;;;;5033446;28;20037;-71
2022/03/27 14:41:45;;;;;;;14.05;6.60;;;;;;;;;;5033290;28;20444;-71
2022/03/27 14:44:11;;;;;;;16.08;6.75;;;;;;;;;;5033754;28;20022;-71
2022/03/27 14:46:38;;;;;;;18.65;6.82;;;;;;;;;;5033575;28;20028;-71
2022/03/27 14:49:04;;;;;;;20.50;6.05;;;;;;;;;;5033573;28;20029;-71
2022/03/27 14:51:31;;;;;;;18.25;5.72;;;;;;;;;;5033347;28;20029;-71